Terminal Aerodrome Forecast
Issued by NWS

Home | Current Version | Previous Version | Graphics & Text | Print | Product List | Glossary On
Versions: 1 2 3 4 5 6 7 8 9 10 11 12 13 14 15 16 17 18 19 20 21
000
FTUS43 KTOP 191009 AAA
TAFMHK
TAF AMD
KMHK 191009Z 1910/2006 00000KT 2SM BR SCT250
      TEMPO 1910/1914 1/4SM FG VV003
     FM191600 18009KT 4SM BR BKN013
     FM191900 18013KT P6SM SCT025
     FM200100 17010KT 4SM BR OVC011=

USA.gov is the U.S. government's official web portal to all federal, state and local government web resources and services.